Time;durP1;ratioP1;P1;durP2;ratioP2;P2;SDS_P1;SDS_P2;PMS_P1;PMS_P2;Temp;Humidity;BMP_temperature;BMP_pressure;BME280_temperature;BME280_humidity;BME280_pressure;Samples;Min_cycle;Max_cycle;Signal;HPM_P1;HPM_P2
2021/12/25 00:03:57;;;;;;;3.33;3.00;;;;;;;;;;10582900;28;20028;-81
2021/12/25 00:09:05;;;;;;;4.80;4.35;;;;;;;;;;10595976;28;20036;-82
2021/12/25 00:14:11;;;;;;;4.03;3.63;;;;;;;;;;10597846;28;20095;-81
2021/12/25 00:19:15;;;;;;;4.32;3.88;;;;;;;;;;10596792;28;20024;-81
2021/12/25 00:24:16;;;;;;;4.13;3.35;;;;;;;;;;10598450;28;20087;-81
2021/12/25 00:34:36;;;;;;;3.50;3.20;;;;;;;;;;10617575;28;19910;-81
2021/12/25 00:39:37;;;;;;;3.00;2.53;;;;;;;;;;10618838;28;20023;-82
2021/12/25 00:44:38;;;;;;;;;;;;;;;;;;10602024;28;20043;-82
2021/12/25 00:49:51;;;;;;;3.20;2.90;;;;;;;;;;10602656;28;19946;-82
2021/12/25 00:55:00;;;;;;;3.63;3.33;;;;;;;;;;10606189;28;20038;-82
2021/12/25 01:00:01;;;;;;;3.83;3.42;;;;;;;;;;10615430;28;20023;-81
2021/12/25 01:05:04;;;;;;;3.85;3.47;;;;;;;;;;10593267;28;20031;-81
2021/12/25 01:10:09;;;;;;;3.28;2.97;;;;;;;;;;10628503;27;20500;-81
2021/12/25 01:15:11;;;;;;;5.53;5.03;;;;;;;;;;10592500;28;20433;-81
2021/12/25 01:36:32;;;;;;;4.82;4.32;;;;;;;;;;10611280;28;20111;-81
2021/12/25 01:51:58;;;;;;;3.58;3.28;;;;;;;;;;10609208;28;20035;-81
2021/12/25 01:56:59;;;;;;;6.57;5.97;;;;;;;;;;10590206;28;20023;-81
2021/12/25 02:02:00;;;;;;;5.75;5.22;;;;;;;;;;10609143;28;20038;-81
2021/12/25 02:07:01;;;;;;;4.28;3.88;;;;;;;;;;10590380;28;20036;-80
2021/12/25 02:12:02;;;;;;;5.38;4.88;;;;;;;;;;10590334;28;20328;-81
2021/12/25 02:17:19;;;;;;;6.78;6.15;;;;;;;;;;10608708;28;20050;-81
2021/12/25 02:22:24;;;;;;;5.85;5.25;;;;;;;;;;10591386;28;20099;-81
2021/12/25 02:27:25;;;;;;;6.03;5.25;;;;;;;;;;10593107;28;20118;-82
2021/12/25 02:32:26;;;;;;;7.45;6.75;;;;;;;;;;10590721;28;20024;-81
2021/12/25 02:37:27;;;;;;;4.88;4.38;;;;;;;;;;10589460;28;20035;-81
2021/12/25 02:42:28;;;;;;;7.22;6.35;;;;;;;;;;10589825;28;20032;-81
2021/12/25 02:47:30;;;;;;;5.88;5.28;;;;;;;;;;10589285;28;20035;-80
2021/12/25 02:52:31;;;;;;;5.88;5.25;;;;;;;;;;10589789;28;20061;-81
2021/12/25 02:57:32;;;;;;;5.68;5.10;;;;;;;;;;10588848;28;20049;-81
2021/12/25 03:02:33;;;;;;;4.45;4.05;;;;;;;;;;10590474;28;20035;-81
2021/12/25 03:07:34;;;;;;;6.43;5.82;;;;;;;;;;10592359;28;20031;-81
2021/12/25 03:12:46;;;;;;;4.43;4.00;;;;;;;;;;10592311;28;20023;-81
2021/12/25 03:17:47;;;;;;;5.30;4.80;;;;;;;;;;10612962;27;20018;-81
2021/12/25 03:22:48;;;;;;;6.72;6.03;;;;;;;;;;10594005;28;20496;-80
2021/12/25 03:27:51;;;;;;;5.97;5.47;;;;;;;;;;10594366;28;20036;-81
2021/12/25 03:32:52;;;;;;;3.95;3.55;;;;;;;;;;10595204;28;20028;-81
2021/12/25 03:37:53;;;;;;;6.15;5.57;;;;;;;;;;10593956;28;20024;-81
2021/12/25 03:42:54;;;;;;;5.53;5.03;;;;;;;;;;10594646;28;20538;-81
2021/12/25 03:48:05;;;;;;;6.60;6.00;;;;;;;;;;10605914;28;20051;-81
2021/12/25 03:58:30;;;;;;;4.88;4.45;;;;;;;;;;10635480;28;20016;-82
2021/12/25 04:03:48;;;;;;;5.55;5.05;;;;;;;;;;10616970;27;20020;-81
2021/12/25 04:08:51;;;;;;;5.38;4.88;;;;;;;;;;10615962;28;20011;-80
2021/12/25 04:13:52;;;;;;;3.63;3.30;;;;;;;;;;10634245;28;20045;-81
2021/12/25 04:18:54;;;;;;;5.05;3.95;;;;;;;;;;10617616;28;20373;-81
2021/12/25 04:23:55;;;;;;;;;;;;;;;;;;10618492;27;20095;-81
2021/12/25 05:01:39;;;;;;;2.22;1.90;;;;;;;;;;10634195;28;20118;-81
2021/12/25 05:06:08;;;;;;;3.60;3.30;;;;;;;;;;10634128;27;20039;-80
2021/12/25 05:11:10;;;;;;;3.78;3.17;;;;;;;;;;10617618;27;20035;-81
2021/12/25 05:16:11;;;;;;;3.25;2.95;;;;;;;;;;10615264;28;19999;-80
2021/12/25 05:21:13;;;;;;;4.30;2.97;;;;;;;;;;10615706;28;20039;-81
2021/12/25 05:26:14;;;;;;;3.97;3.58;;;;;;;;;;10615001;27;20047;-79
2021/12/25 05:31:16;;;;;;;2.92;2.28;;;;;;;;;;10614962;28;20024;-81
2021/12/25 05:36:17;;;;;;;2.75;2.13;;;;;;;;;;10611944;28;20028;-81
2021/12/25 05:41:18;;;;;;;2.95;1.77;;;;;;;;;;10630754;28;20023;-81
2021/12/25 05:46:19;;;;;;;4.82;2.85;;;;;;;;;;10612525;28;20046;-80
2021/12/25 05:51:20;;;;;;;2.72;1.90;;;;;;;;;;10582715;28;20104;-80
2021/12/25 05:56:23;;;;;;;3.13;2.83;;;;;;;;;;10599633;28;20020;-80
2021/12/25 06:01:25;;;;;;;2.47;2.28;;;;;;;;;;10581746;28;20027;-80
2021/12/25 06:06:26;;;;;;;2.58;2.03;;;;;;;;;;10575515;28;20428;-80
2021/12/25 06:11:30;;;;;;;2.28;1.60;;;;;;;;;;10574346;28;20114;-81
2021/12/25 06:16:31;;;;;;;3.00;2.50;;;;;;;;;;10572193;28;20024;-80
2021/12/25 06:21:32;;;;;;;2.33;2.00;;;;;;;;;;10573128;28;20028;-80
2021/12/25 06:26:38;;;;;;;2.40;1.95;;;;;;;;;;10572395;28;20533;-80
2021/12/25 06:31:42;;;;;;;2.10;1.95;;;;;;;;;;10572595;28;20020;-80
2021/12/25 06:36:43;;;;;;;1.80;1.52;;;;;;;;;;10571967;28;20035;-81
2021/12/25 06:41:45;;;;;;;2.15;1.83;;;;;;;;;;10572197;28;20063;-81
2021/12/25 06:46:46;;;;;;;;;;;;;;;;;;10573355;28;20023;-80
2021/12/25 06:51:48;;;;;;;3.10;2.72;;;;;;;;;;10572174;28;20274;-80
2021/12/25 06:56:53;;;;;;;1.80;1.60;;;;;;;;;;10572099;28;20477;-80
2021/12/25 07:01:54;;;;;;;3.15;2.85;;;;;;;;;;10572161;28;20562;-80
2021/12/25 07:06:55;;;;;;;2.75;2.10;;;;;;;;;;10571327;28;20385;-80
2021/12/25 07:11:57;;;;;;;2.53;2.08;;;;;;;;;;10571880;28;20020;-80
2021/12/25 07:17:00;;;;;;;3.28;2.88;;;;;;;;;;10589371;28;20019;-80
2021/12/25 07:22:03;;;;;;;2.65;2.05;;;;;;;;;;10571485;28;20465;-80
2021/12/25 07:27:05;;;;;;;4.18;3.75;;;;;;;;;;10570828;28;20019;-80
2021/12/25 07:32:06;;;;;;;2.20;2.00;;;;;;;;;;10586792;27;20016;-80
2021/12/25 07:37:07;;;;;;;;;;;;;;;;;;10592925;28;20156;-80
2021/12/25 07:42:09;;;;;;;4.17;3.20;;;;;;;;;;10572846;28;19917;-80
2021/12/25 07:47:14;;;;;;;4.18;3.05;;;;;;;;;;10588783;28;20321;-81
2021/12/25 07:52:15;;;;;;;3.92;3.00;;;;;;;;;;10576835;28;20038;-81
2021/12/25 07:57:16;;;;;;;4.50;2.88;;;;;;;;;;10577954;28;20473;-80
2021/12/25 08:02:18;;;;;;;3.25;2.55;;;;;;;;;;10577642;28;20081;-80
2021/12/25 08:07:19;;;;;;;2.08;1.80;;;;;;;;;;10578886;28;20023;-80
2021/12/25 08:12:20;;;;;;;3.40;2.22;;;;;;;;;;10577984;28;20059;-80
2021/12/25 08:17:21;;;;;;;1.80;1.45;;;;;;;;;;10577849;28;20099;-80
2021/12/25 08:22:22;;;;;;;3.50;1.70;;;;;;;;;;10577360;28;20126;-79
2021/12/25 08:27:23;;;;;;;3.83;1.83;;;;;;;;;;10579219;28;20034;-79
2021/12/25 08:32:24;;;;;;;2.53;1.80;;;;;;;;;;10578103;28;20133;-79
2021/12/25 08:37:26;;;;;;;2.67;1.55;;;;;;;;;;10576415;28;20031;-79
2021/12/25 08:42:27;;;;;;;2.40;1.60;;;;;;;;;;10576441;28;20031;-80
2021/12/25 08:47:30;;;;;;;2.15;1.35;;;;;;;;;;10628424;22;20043;-81
2021/12/25 08:52:31;;;;;;;1.85;1.20;;;;;;;;;;10617459;28;20019;-81
2021/12/25 08:57:32;;;;;;;2.08;1.10;;;;;;;;;;10615160;28;20078;-81
2021/12/25 09:02:33;;;;;;;2.38;1.30;;;;;;;;;;10614852;28;20031;-82
2021/12/25 09:07:38;;;;;;;1.70;1.10;;;;;;;;;;10613828;28;20043;-82
2021/12/25 09:25:00;;;;;;;;;;;;;;;;;;;;;
2021/12/25 09:30:54;;;;;;;1.88;0.82;;;;;;;;;;10511234;28;20036;-82
2021/12/25 09:42:23;;;;;;;;;;;;;;;;;;;;;
2021/12/25 09:48:03;;;;;;;2.35;1.15;;;;;;;;;;10330080;28;20038;-82
2021/12/25 09:53:13;;;;;;;1.20;0.90;;;;;;;;;;10507987;28;20051;-82
2021/12/25 09:58:40;;;;;;;;;;;;;;;;;;;;;
2021/12/25 10:09:23;;;;;;;2.00;0.93;;;;;;;;;;10613555;28;20036;-82
2021/12/25 10:14:27;;;;;;;1.50;0.70;;;;;;;;;;10611763;28;20041;-81
2021/12/25 10:19:31;;;;;;;1.63;1.05;;;;;;;;;;10611658;28;20396;-82
2021/12/25 10:24:50;;;;;;;1.70;1.23;;;;;;;;;;10612156;28;20023;-82
2021/12/25 10:30:06;;;;;;;1.77;1.10;;;;;;;;;;10610845;28;20053;-82
2021/12/25 10:35:36;;;;;;;3.47;1.30;;;;;;;;;;10611719;28;20024;-82
2021/12/25 10:40:37;;;;;;;3.30;2.30;;;;;;;;;;10556491;28;20100;-82
2021/12/25 10:45:38;;;;;;;1.50;1.10;;;;;;;;;;10595690;28;20027;-81
2021/12/25 10:50:48;;;;;;;2.08;1.42;;;;;;;;;;10599470;28;20027;-82
2021/12/25 10:56:37;;;;;;;;;;;;;;;;;;;;;
2021/12/25 11:02:07;;;;;;;2.15;1.10;;;;;;;;;;10604476;28;20032;-81
2021/12/25 11:07:19;;;;;;;1.45;0.93;;;;;;;;;;10521121;28;20063;-81
2021/12/25 11:12:29;;;;;;;2.00;1.15;;;;;;;;;;10607833;28;20027;-82
2021/12/25 11:17:35;;;;;;;2.17;1.30;;;;;;;;;;10608203;28;20035;-81
2021/12/25 11:22:52;;;;;;;2.00;0.95;;;;;;;;;;10608950;28;20412;-81
2021/12/25 11:27:54;;;;;;;2.03;0.90;;;;;;;;;;10617775;28;20032;-82
2021/12/25 11:33:10;;;;;;;;;;;;;;;;;;10618203;28;20027;-81
2021/12/25 12:07:12;;;;;;;1.77;1.15;;;;;;;;;;10622967;28;20032;-81
2021/12/25 12:12:28;;;;;;;3.42;1.20;;;;;;;;;;10625097;28;20069;-80
2021/12/25 12:17:39;;;;;;;2.83;1.10;;;;;;;;;;10715451;22;20082;-81
2021/12/25 12:35:00;;;;;;;1.38;0.93;;;;;;;;;;10537268;28;20025;-81
2021/12/25 12:46:11;;;;;;;;;;;;;;;;;;;;;
2021/12/25 12:50:46;;;;;;;1.77;1.08;;;;;;;;;;10513118;28;20033;-82
2021/12/25 12:56:09;;;;;;;1.48;0.98;;;;;;;;;;10518218;28;20037;-81
2021/12/25 13:01:14;;;;;;;1.70;0.70;;;;;;;;;;10519445;28;20024;-82
2021/12/25 13:06:32;;;;;;;2.35;1.17;;;;;;;;;;10518657;28;20044;-82
2021/12/25 13:11:42;;;;;;;1.73;0.80;;;;;;;;;;10517869;28;20037;-82
2021/12/25 13:16:56;;;;;;;1.40;0.70;;;;;;;;;;10515503;28;20086;-81
2021/12/25 13:21:58;;;;;;;1.30;0.70;;;;;;;;;;10534088;28;20033;-82
2021/12/25 13:27:03;;;;;;;2.15;0.73;;;;;;;;;;10516281;28;20058;-82
2021/12/25 13:32:04;;;;;;;0.93;0.55;;;;;;;;;;10534754;28;20021;-82
2021/12/25 13:37:13;;;;;;;1.10;0.70;;;;;;;;;;10517633;28;20025;-82
2021/12/25 13:42:16;;;;;;;1.00;0.65;;;;;;;;;;10515815;28;20046;-82
2021/12/25 13:47:21;;;;;;;1.30;0.70;;;;;;;;;;10515758;28;20033;-82
2021/12/25 13:52:29;;;;;;;1.92;0.70;;;;;;;;;;10518118;28;20027;-82
2021/12/25 13:57:31;;;;;;;1.63;0.80;;;;;;;;;;10532898;28;20091;-82
2021/12/25 14:02:46;;;;;;;1.60;0.95;;;;;;;;;;10509421;28;20505;-79
2021/12/25 14:08:08;;;;;;;;;;;;;;;;;;;;;
2021/12/25 14:13:20;;;;;;;1.33;0.82;;;;;;;;;;10532556;28;20024;-82
2021/12/25 14:18:22;;;;;;;2.10;1.15;;;;;;;;;;10515377;28;20115;-82
2021/12/25 14:23:29;;;;;;;1.25;0.65;;;;;;;;;;10521591;28;20039;-82
2021/12/25 14:28:34;;;;;;;1.33;0.60;;;;;;;;;;10581509;22;20075;-82
2021/12/25 14:34:20;;;;;;;1.43;0.77;;;;;;;;;;10619532;28;20026;-82
2021/12/25 14:39:58;;;;;;;1.30;0.80;;;;;;;;;;10585800;28;20265;-79
2021/12/25 14:50:39;;;;;;;1.90;1.40;;;;;;;;;;10529715;28;20033;-81
2021/12/25 14:55:50;;;;;;;1.55;0.70;;;;;;;;;;10518773;28;20023;-81
2021/12/25 15:01:19;;;;;;;1.95;1.00;;;;;;;;;;10516702;28;20139;-80
2021/12/25 15:13:14;;;;;;;2.08;1.10;;;;;;;;;;10515061;28;20032;-80
2021/12/25 15:18:16;;;;;;;2.13;1.02;;;;;;;;;;10507704;28;20033;-81
2021/12/25 15:28:56;;;;;;;1.70;0.95;;;;;;;;;;10488860;28;20147;-80
2021/12/25 15:34:14;;;;;;;0.85;0.60;;;;;;;;;;10499235;28;20135;-82
2021/12/25 15:39:34;;;;;;;1.13;0.82;;;;;;;;;;10518650;28;20092;-81
2021/12/25 15:44:51;;;;;;;;;;;;;;;;;;;;;
2021/12/25 15:50:01;;;;;;;1.42;0.70;;;;;;;;;;10527595;28;20055;-81
2021/12/25 15:55:29;;;;;;;1.70;0.80;;;;;;;;;;10521918;28;20020;-81
2021/12/25 16:00:44;;;;;;;1.38;0.80;;;;;;;;;;10520065;28;20091;-81
2021/12/25 16:06:15;;;;;;;1.75;1.05;;;;;;;;;;10516175;28;20063;-83
2021/12/25 16:11:17;;;;;;;1.60;0.80;;;;;;;;;;10514373;28;20536;-83
2021/12/25 16:16:47;;;;;;;1.25;0.82;;;;;;;;;;10519282;28;20032;-83
2021/12/25 16:27:27;;;;;;;1.33;0.75;;;;;;;;;;10552965;28;20032;-78
2021/12/25 16:32:28;;;;;;;1.80;1.13;;;;;;;;;;10572930;28;20022;-82
2021/12/25 16:37:29;;;;;;;2.92;1.50;;;;;;;;;;10594262;28;20059;-81
2021/12/25 16:42:30;;;;;;;2.20;1.20;;;;;;;;;;10600130;28;20077;-80
2021/12/25 16:47:31;;;;;;;2.38;1.27;;;;;;;;;;10602498;28;20032;-81
2021/12/25 16:52:32;;;;;;;1.60;1.02;;;;;;;;;;10609312;28;20016;-80
2021/12/25 16:57:35;;;;;;;1.77;1.05;;;;;;;;;;10616243;28;20540;-81
2021/12/25 17:02:36;;;;;;;2.75;2.00;;;;;;;;;;10618765;28;20026;-81
2021/12/25 17:07:37;;;;;;;2.03;0.93;;;;;;;;;;10605658;28;20028;-81
2021/12/25 17:12:38;;;;;;;;;;;;;;;;;;10603704;28;20035;-82
2021/12/25 17:17:40;;;;;;;1.50;0.93;;;;;;;;;;10604266;28;20280;-81
2021/12/25 17:22:41;;;;;;;2.15;1.38;;;;;;;;;;10605087;28;20036;-81
2021/12/25 17:27:44;;;;;;;1.08;0.88;;;;;;;;;;10602460;28;20028;-81
2021/12/25 17:32:45;;;;;;;2.50;1.40;;;;;;;;;;10603132;28;20024;-81
2021/12/25 17:37:47;;;;;;;2.08;1.15;;;;;;;;;;10605163;28;20106;-81
2021/12/25 17:42:49;;;;;;;2.10;1.30;;;;;;;;;;10603255;28;20066;-80
2021/12/25 17:47:50;;;;;;;1.40;1.05;;;;;;;;;;10602792;28;20374;-80
2021/12/25 17:52:52;;;;;;;1.77;1.13;;;;;;;;;;10574116;28;20100;-81
2021/12/25 17:57:53;;;;;;;;;;;;;;;;;;10562641;28;20028;-82
2021/12/25 18:02:54;;;;;;;1.85;1.25;;;;;;;;;;10558165;28;19904;-80
2021/12/25 18:07:55;;;;;;;3.88;1.30;;;;;;;;;;10559225;28;20543;-81
2021/12/25 18:12:56;;;;;;;;;;;;;;;;;;10557461;28;20500;-81
2021/12/25 18:17:58;;;;;;;2.07;1.10;;;;;;;;;;10558195;28;19915;-80
2021/12/25 18:22:59;;;;;;;1.90;1.00;;;;;;;;;;10560776;28;20135;-81
2021/12/25 18:28:00;;;;;;;2.47;1.20;;;;;;;;;;10559267;28;20032;-81
2021/12/25 18:33:02;;;;;;;3.63;1.30;;;;;;;;;;10557177;28;20059;-82
2021/12/25 18:38:04;;;;;;;1.83;1.23;;;;;;;;;;10558153;28;20020;-81
2021/12/25 18:43:05;;;;;;;2.00;1.30;;;;;;;;;;10559046;28;20367;-81
2021/12/25 18:48:06;;;;;;;2.15;1.20;;;;;;;;;;10556611;28;20028;-81
2021/12/25 18:53:08;;;;;;;1.58;0.98;;;;;;;;;;10565800;28;20024;-80
2021/12/25 18:58:09;;;;;;;1.92;1.27;;;;;;;;;;10570598;28;20390;-81
2021/12/25 19:03:10;;;;;;;3.10;1.58;;;;;;;;;;10559957;28;20036;-81
2021/12/25 19:08:12;;;;;;;2.20;1.30;;;;;;;;;;10558523;28;20058;-81
2021/12/25 19:13:13;;;;;;;1.95;1.25;;;;;;;;;;10556617;28;20028;-81
2021/12/25 19:18:14;;;;;;;2.72;1.77;;;;;;;;;;10556556;28;20024;-81
2021/12/25 19:23:16;;;;;;;;;;;;;;;;;;10557548;28;20046;-81
2021/12/25 19:28:18;;;;;;;3.05;1.40;;;;;;;;;;10555755;28;19934;-80
2021/12/25 19:33:19;;;;;;;;;;;;;;;;;;10560334;28;20092;-81
2021/12/25 19:38:21;;;;;;;3.70;1.90;;;;;;;;;;10559769;28;20006;-82
2021/12/25 19:43:23;;;;;;;3.40;1.40;;;;;;;;;;10560243;28;20394;-81
2021/12/25 19:48:25;;;;;;;2.13;1.30;;;;;;;;;;10559951;28;20493;-81
2021/12/25 19:53:27;;;;;;;3.00;1.27;;;;;;;;;;10584374;28;20058;-80
2021/12/25 19:58:33;;;;;;;3.03;1.70;;;;;;;;;;10579602;28;20048;-81
2021/12/25 20:03:37;;;;;;;2.75;1.60;;;;;;;;;;10573249;28;20039;-81
2021/12/25 20:08:39;;;;;;;2.42;1.30;;;;;;;;;;10566273;28;20043;-81
2021/12/25 20:13:40;;;;;;;2.28;1.38;;;;;;;;;;10564964;28;20058;-81
2021/12/25 20:18:43;;;;;;;3.40;1.90;;;;;;;;;;10564288;28;20056;-81
2021/12/25 20:23:45;;;;;;;1.70;1.20;;;;;;;;;;10563719;28;20032;-80
2021/12/25 20:28:46;;;;;;;4.18;1.88;;;;;;;;;;10562834;28;20032;-81
2021/12/25 20:33:49;;;;;;;2.85;1.88;;;;;;;;;;10562724;28;20024;-81
2021/12/25 20:38:50;;;;;;;2.90;1.30;;;;;;;;;;10563697;28;20040;-81
2021/12/25 20:49:11;;;;;;;2.50;1.40;;;;;;;;;;10597148;28;20503;-79
2021/12/25 20:54:13;;;;;;;2.90;1.70;;;;;;;;;;10579118;28;20491;-79
2021/12/25 20:59:14;;;;;;;2.60;1.83;;;;;;;;;;10581799;28;20030;-79
2021/12/25 21:04:16;;;;;;;2.83;1.63;;;;;;;;;;10579144;28;20032;-79
2021/12/25 21:09:19;;;;;;;3.88;2.47;;;;;;;;;;10564569;28;20039;-79
2021/12/25 21:14:21;;;;;;;3.10;2.00;;;;;;;;;;10581782;28;20047;-81
2021/12/25 21:19:22;;;;;;;3.40;1.90;;;;;;;;;;10580600;28;20031;-81
2021/12/25 21:24:24;;;;;;;2.40;1.42;;;;;;;;;;10581409;28;20027;-79
2021/12/25 21:29:25;;;;;;;2.67;1.70;;;;;;;;;;10625112;27;20035;-80
2021/12/25 21:34:30;;;;;;;2.65;1.65;;;;;;;;;;10611514;27;20431;-80
2021/12/25 21:39:33;;;;;;;3.67;2.00;;;;;;;;;;10597178;28;20028;-79
2021/12/25 21:44:34;;;;;;;3.15;1.90;;;;;;;;;;10580053;28;20046;-80
2021/12/25 21:49:37;;;;;;;3.10;1.60;;;;;;;;;;10581640;28;20054;-79
2021/12/25 21:54:41;;;;;;;3.95;2.38;;;;;;;;;;10578781;28;20114;-80
2021/12/25 21:59:44;;;;;;;3.03;1.80;;;;;;;;;;10595372;28;20024;-79
2021/12/25 22:04:47;;;;;;;3.05;2.10;;;;;;;;;;10594868;28;20023;-80
2021/12/25 22:09:50;;;;;;;3.33;1.75;;;;;;;;;;10575561;28;20050;-80
2021/12/25 22:14:53;;;;;;;3.08;2.10;;;;;;;;;;10577044;28;20073;-80
2021/12/25 22:19:57;;;;;;;2.58;1.83;;;;;;;;;;10578467;28;20063;-79
2021/12/25 22:24:58;;;;;;;3.28;2.03;;;;;;;;;;10575260;28;20039;-80
2021/12/25 22:29:59;;;;;;;3.28;1.92;;;;;;;;;;10575948;28;20062;-80
2021/12/25 22:35:03;;;;;;;3.10;2.15;;;;;;;;;;10560271;28;20032;-80
2021/12/25 22:40:05;;;;;;;2.65;1.70;;;;;;;;;;10589430;28;20028;-79
2021/12/25 22:45:06;;;;;;;2.90;2.10;;;;;;;;;;10607553;27;20036;-80
2021/12/25 22:50:07;;;;;;;;;;;;;;;;;;10575632;28;20042;-78
2021/12/25 22:55:11;;;;;;;2.50;1.50;;;;;;;;;;10574748;28;19904;-79
2021/12/25 23:00:17;;;;;;;3.85;1.90;;;;;;;;;;10574669;28;20035;-79
2021/12/25 23:05:23;;;;;;;2.22;1.70;;;;;;;;;;10558114;28;20545;-79
2021/12/25 23:10:25;;;;;;;2.72;1.90;;;;;;;;;;10574688;28;20095;-79
2021/12/25 23:15:27;;;;;;;3.08;1.80;;;;;;;;;;10574709;28;20024;-79
2021/12/25 23:20:28;;;;;;;3.15;2.00;;;;;;;;;;10597110;28;20027;-79
2021/12/25 23:25:31;;;;;;;3.03;1.60;;;;;;;;;;10601924;28;20023;-80
2021/12/25 23:30:34;;;;;;;2.72;1.80;;;;;;;;;;10584778;28;20038;-80
2021/12/25 23:35:39;;;;;;;3.10;1.90;;;;;;;;;;10566880;28;20070;-80
2021/12/25 23:40:43;;;;;;;3.53;1.92;;;;;;;;;;10604039;28;20059;-80
2021/12/25 23:45:45;;;;;;;3.25;1.90;;;;;;;;;;10585365;28;20405;-80
2021/12/25 23:50:46;;;;;;;3.83;1.95;;;;;;;;;;10565586;28;20028;-78
2021/12/25 23:56:10;;;;;;;2.80;1.70;;;;;;;;;;10564039;28;20044;-78
